sensor_id;sensor_type;location;lat;lon;timestamp;P1;durP1;ratioP1;P2;durP2;ratioP2
62788;SDS011;66401;42.016;21.454;2024-03-02T00:00:10;16.80;;;10.30;;
62788;SDS011;66401;42.016;21.454;2024-03-02T00:02:43;13.13;;;10.33;;
62788;SDS011;66401;42.016;21.454;2024-03-02T00:05:10;18.27;;;12.37;;
62788;SDS011;66401;42.016;21.454;2024-03-02T00:07:43;17.93;;;11.70;;
62788;SDS011;66401;42.016;21.454;2024-03-02T00:10:11;17.67;;;11.73;;
62788;SDS011;66401;42.016;21.454;2024-03-02T00:12:45;17.37;;;11.30;;
62788;SDS011;66401;42.016;21.454;2024-03-02T00:17:59;14.60;;;10.50;;
62788;SDS011;66401;42.016;21.454;2024-03-02T00:20:24;16.60;;;11.17;;
62788;SDS011;66401;42.016;21.454;2024-03-02T00:22:55;16.80;;;12.00;;
62788;SDS011;66401;42.016;21.454;2024-03-02T00:25:40;16.33;;;11.03;;
62788;SDS011;66401;42.016;21.454;2024-03-02T00:28:17;15.27;;;11.53;;
62788;SDS011;66401;42.016;21.454;2024-03-02T00:30:57;16.17;;;12.70;;
62788;SDS011;66401;42.016;21.454;2024-03-02T00:33:34;16.90;;;11.50;;
62788;SDS011;66401;42.016;21.454;2024-03-02T00:36:01;17.10;;;11.70;;
62788;SDS011;66401;42.016;21.454;2024-03-02T00:38:28;18.10;;;12.97;;
62788;SDS011;66401;42.016;21.454;2024-03-02T00:40:55;17.40;;;12.20;;
62788;SDS011;66401;42.016;21.454;2024-03-02T00:46:19;12.27;;;10.07;;
62788;SDS011;66401;42.016;21.454;2024-03-02T00:48:50;16.50;;;10.73;;
62788;SDS011;66401;42.016;21.454;2024-03-02T00:51:19;14.07;;;9.63;;
62788;SDS011;66401;42.016;21.454;2024-03-02T00:53:46;12.60;;;10.20;;
62788;SDS011;66401;42.016;21.454;2024-03-02T00:56:11;13.53;;;9.37;;
62788;SDS011;66401;42.016;21.454;2024-03-02T00:58:37;15.93;;;10.33;;
62788;SDS011;66401;42.016;21.454;2024-03-02T01:01:03;16.37;;;10.60;;
62788;SDS011;66401;42.016;21.454;2024-03-02T01:03:29;19.50;;;11.40;;
62788;SDS011;66401;42.016;21.454;2024-03-02T01:05:56;17.37;;;11.00;;
62788;SDS011;66401;42.016;21.454;2024-03-02T01:08:21;17.90;;;11.83;;
62788;SDS011;66401;42.016;21.454;2024-03-02T01:10:47;16.60;;;11.30;;
62788;SDS011;66401;42.016;21.454;2024-03-02T01:13:12;19.27;;;12.60;;
62788;SDS011;66401;42.016;21.454;2024-03-02T01:15:38;14.57;;;10.80;;
62788;SDS011;66401;42.016;21.454;2024-03-02T01:18:03;16.60;;;11.43;;
62788;SDS011;66401;42.016;21.454;2024-03-02T01:20:29;15.27;;;10.60;;
62788;SDS011;66401;42.016;21.454;2024-03-02T01:22:55;14.87;;;11.37;;
62788;SDS011;66401;42.016;21.454;2024-03-02T01:25:20;18.87;;;11.67;;
62788;SDS011;66401;42.016;21.454;2024-03-02T01:27:46;15.97;;;11.97;;
62788;SDS011;66401;42.016;21.454;2024-03-02T01:30:11;17.43;;;12.50;;
62788;SDS011;66401;42.016;21.454;2024-03-02T01:32:40;18.63;;;11.80;;
62788;SDS011;66401;42.016;21.454;2024-03-02T01:35:05;19.43;;;12.93;;
62788;SDS011;66401;42.016;21.454;2024-03-02T01:37:32;17.80;;;13.47;;
62788;SDS011;66401;42.016;21.454;2024-03-02T01:39:57;19.97;;;13.13;;
62788;SDS011;66401;42.016;21.454;2024-03-02T01:42:23;17.87;;;13.60;;
62788;SDS011;66401;42.016;21.454;2024-03-02T01:44:49;19.37;;;12.57;;
62788;SDS011;66401;42.016;21.454;2024-03-02T01:47:15;18.63;;;13.87;;
62788;SDS011;66401;42.016;21.454;2024-03-02T01:49:41;22.77;;;14.87;;
62788;SDS011;66401;42.016;21.454;2024-03-02T01:52:07;22.70;;;15.87;;
62788;SDS011;66401;42.016;21.454;2024-03-02T01:54:32;23.43;;;14.90;;
62788;SDS011;66401;42.016;21.454;2024-03-02T01:56:58;22.60;;;15.87;;
62788;SDS011;66401;42.016;21.454;2024-03-02T01:59:24;22.03;;;15.97;;
62788;SDS011;66401;42.016;21.454;2024-03-02T02:01:50;27.97;;;16.77;;
62788;SDS011;66401;42.016;21.454;2024-03-02T02:04:16;23.77;;;16.67;;
62788;SDS011;66401;42.016;21.454;2024-03-02T02:06:43;24.57;;;16.50;;
62788;SDS011;66401;42.016;21.454;2024-03-02T02:09:09;24.97;;;16.57;;
62788;SDS011;66401;42.016;21.454;2024-03-02T02:11:35;25.93;;;16.80;;
62788;SDS011;66401;42.016;21.454;2024-03-02T02:14:00;24.60;;;15.77;;
62788;SDS011;66401;42.016;21.454;2024-03-02T02:16:26;21.77;;;15.03;;
62788;SDS011;66401;42.016;21.454;2024-03-02T02:18:52;27.67;;;17.13;;
62788;SDS011;66401;42.016;21.454;2024-03-02T02:21:17;28.40;;;17.37;;
62788;SDS011;66401;42.016;21.454;2024-03-02T02:23:43;25.47;;;14.83;;
62788;SDS011;66401;42.016;21.454;2024-03-02T02:26:11;25.90;;;16.20;;
62788;SDS011;66401;42.016;21.454;2024-03-02T02:28:37;25.60;;;14.73;;
62788;SDS011;66401;42.016;21.454;2024-03-02T02:31:03;22.57;;;14.73;;
62788;SDS011;66401;42.016;21.454;2024-03-02T02:33:29;20.43;;;15.30;;
62788;SDS011;66401;42.016;21.454;2024-03-02T02:35:54;20.73;;;13.90;;
62788;SDS011;66401;42.016;21.454;2024-03-02T02:38:20;24.40;;;14.87;;
62788;SDS011;66401;42.016;21.454;2024-03-02T02:40:45;25.07;;;15.43;;
62788;SDS011;66401;42.016;21.454;2024-03-02T02:43:11;21.20;;;13.70;;
62788;SDS011;66401;42.016;21.454;2024-03-02T02:45:36;22.83;;;15.07;;
62788;SDS011;66401;42.016;21.454;2024-03-02T02:48:02;21.90;;;14.47;;
62788;SDS011;66401;42.016;21.454;2024-03-02T02:50:28;24.33;;;14.20;;
62788;SDS011;66401;42.016;21.454;2024-03-02T02:52:53;25.73;;;14.73;;
62788;SDS011;66401;42.016;21.454;2024-03-02T02:55:19;21.80;;;14.27;;
62788;SDS011;66401;42.016;21.454;2024-03-02T02:57:44;22.47;;;13.73;;
62788;SDS011;66401;42.016;21.454;2024-03-02T03:00:14;26.47;;;14.40;;
62788;SDS011;66401;42.016;21.454;2024-03-02T03:02:42;22.80;;;13.00;;
62788;SDS011;66401;42.016;21.454;2024-03-02T03:05:09;22.57;;;13.27;;
62788;SDS011;66401;42.016;21.454;2024-03-02T03:07:36;21.43;;;13.47;;
62788;SDS011;66401;42.016;21.454;2024-03-02T03:10:03;20.83;;;12.33;;
62788;SDS011;66401;42.016;21.454;2024-03-02T03:12:30;21.57;;;11.77;;
62788;SDS011;66401;42.016;21.454;2024-03-02T03:14:58;20.60;;;12.83;;
62788;SDS011;66401;42.016;21.454;2024-03-02T03:17:24;19.30;;;12.30;;
62788;SDS011;66401;42.016;21.454;2024-03-02T03:19:50;19.87;;;11.43;;
62788;SDS011;66401;42.016;21.454;2024-03-02T03:22:16;18.87;;;10.60;;
62788;SDS011;66401;42.016;21.454;2024-03-02T03:24:42;16.23;;;11.17;;
62788;SDS011;66401;42.016;21.454;2024-03-02T03:27:07;13.67;;;11.00;;
62788;SDS011;66401;42.016;21.454;2024-03-02T03:29:35;15.60;;;11.07;;
62788;SDS011;66401;42.016;21.454;2024-03-02T03:32:02;15.70;;;11.30;;
62788;SDS011;66401;42.016;21.454;2024-03-02T03:34:27;17.87;;;11.53;;
62788;SDS011;66401;42.016;21.454;2024-03-02T03:36:54;16.13;;;11.00;;
62788;SDS011;66401;42.016;21.454;2024-03-02T03:39:19;18.30;;;12.33;;
62788;SDS011;66401;42.016;21.454;2024-03-02T03:41:45;15.63;;;10.77;;
62788;SDS011;66401;42.016;21.454;2024-03-02T03:44:10;19.17;;;11.73;;
62788;SDS011;66401;42.016;21.454;2024-03-02T03:46:36;17.73;;;11.57;;
62788;SDS011;66401;42.016;21.454;2024-03-02T03:49:02;17.37;;;12.27;;
62788;SDS011;66401;42.016;21.454;2024-03-02T03:51:28;19.00;;;12.30;;
62788;SDS011;66401;42.016;21.454;2024-03-02T03:53:55;19.37;;;12.40;;
62788;SDS011;66401;42.016;21.454;2024-03-02T03:56:21;20.33;;;12.70;;
62788;SDS011;66401;42.016;21.454;2024-03-02T03:58:46;18.23;;;13.27;;
62788;SDS011;66401;42.016;21.454;2024-03-02T04:01:12;20.63;;;14.00;;
62788;SDS011;66401;42.016;21.454;2024-03-02T04:03:38;21.70;;;14.03;;
62788;SDS011;66401;42.016;21.454;2024-03-02T04:06:03;23.97;;;14.40;;
62788;SDS011;66401;42.016;21.454;2024-03-02T04:08:29;26.17;;;15.13;;
62788;SDS011;66401;42.016;21.454;2024-03-02T04:10:56;23.10;;;14.07;;
62788;SDS011;66401;42.016;21.454;2024-03-02T04:13:21;22.83;;;14.87;;
62788;SDS011;66401;42.016;21.454;2024-03-02T04:15:47;31.17;;;15.47;;
62788;SDS011;66401;42.016;21.454;2024-03-02T04:18:12;27.97;;;15.73;;
62788;SDS011;66401;42.016;21.454;2024-03-02T04:20:38;24.30;;;16.77;;
62788;SDS011;66401;42.016;21.454;2024-03-02T04:23:03;25.40;;;16.03;;
62788;SDS011;66401;42.016;21.454;2024-03-02T04:25:29;23.83;;;15.30;;
62788;SDS011;66401;42.016;21.454;2024-03-02T04:27:54;26.33;;;16.23;;
62788;SDS011;66401;42.016;21.454;2024-03-02T04:30:20;27.73;;;16.63;;
62788;SDS011;66401;42.016;21.454;2024-03-02T04:32:45;25.10;;;16.60;;
62788;SDS011;66401;42.016;21.454;2024-03-02T04:35:12;24.00;;;15.57;;
62788;SDS011;66401;42.016;21.454;2024-03-02T04:37:38;28.27;;;16.57;;
62788;SDS011;66401;42.016;21.454;2024-03-02T04:40:03;28.03;;;15.57;;
62788;SDS011;66401;42.016;21.454;2024-03-02T04:42:33;24.17;;;14.63;;
62788;SDS011;66401;42.016;21.454;2024-03-02T04:44:59;24.50;;;15.80;;
62788;SDS011;66401;42.016;21.454;2024-03-02T04:47:24;25.50;;;15.37;;
62788;SDS011;66401;42.016;21.454;2024-03-02T04:49:50;31.47;;;16.60;;
62788;SDS011;66401;42.016;21.454;2024-03-02T04:52:15;25.47;;;15.93;;
62788;SDS011;66401;42.016;21.454;2024-03-02T04:54:41;20.90;;;14.30;;
62788;SDS011;66401;42.016;21.454;2024-03-02T04:57:30;27.47;;;17.03;;
62788;SDS011;66401;42.016;21.454;2024-03-02T04:59:55;29.80;;;16.23;;
62788;SDS011;66401;42.016;21.454;2024-03-02T05:02:21;25.83;;;16.80;;
62788;SDS011;66401;42.016;21.454;2024-03-02T05:04:46;32.20;;;17.73;;
62788;SDS011;66401;42.016;21.454;2024-03-02T05:07:13;28.67;;;17.57;;
62788;SDS011;66401;42.016;21.454;2024-03-02T05:09:39;31.80;;;17.73;;
62788;SDS011;66401;42.016;21.454;2024-03-02T05:12:05;25.93;;;17.07;;
62788;SDS011;66401;42.016;21.454;2024-03-02T05:14:45;27.33;;;16.37;;
62788;SDS011;66401;42.016;21.454;2024-03-02T05:17:11;26.97;;;16.30;;
62788;SDS011;66401;42.016;21.454;2024-03-02T05:19:36;27.27;;;17.47;;
62788;SDS011;66401;42.016;21.454;2024-03-02T05:22:03;32.90;;;18.00;;
62788;SDS011;66401;42.016;21.454;2024-03-02T05:24:28;26.97;;;16.47;;
62788;SDS011;66401;42.016;21.454;2024-03-02T05:26:54;27.03;;;17.47;;
62788;SDS011;66401;42.016;21.454;2024-03-02T05:29:20;29.57;;;17.03;;
62788;SDS011;66401;42.016;21.454;2024-03-02T05:31:46;24.93;;;16.70;;
62788;SDS011;66401;42.016;21.454;2024-03-02T05:34:11;30.63;;;16.67;;
62788;SDS011;66401;42.016;21.454;2024-03-02T05:36:37;32.10;;;17.40;;
62788;SDS011;66401;42.016;21.454;2024-03-02T05:39:04;28.10;;;16.93;;
62788;SDS011;66401;42.016;21.454;2024-03-02T05:41:34;25.90;;;15.90;;
62788;SDS011;66401;42.016;21.454;2024-03-02T05:44:00;27.63;;;16.67;;
62788;SDS011;66401;42.016;21.454;2024-03-02T05:46:26;27.77;;;17.33;;
62788;SDS011;66401;42.016;21.454;2024-03-02T05:48:51;26.07;;;15.03;;
62788;SDS011;66401;42.016;21.454;2024-03-02T05:51:17;30.10;;;15.67;;
62788;SDS011;66401;42.016;21.454;2024-03-02T05:53:42;25.70;;;15.23;;
62788;SDS011;66401;42.016;21.454;2024-03-02T05:56:08;22.73;;;14.77;;
62788;SDS011;66401;42.016;21.454;2024-03-02T05:58:33;25.30;;;14.60;;
62788;SDS011;66401;42.016;21.454;2024-03-02T06:01:17;21.03;;;14.73;;
62788;SDS011;66401;42.016;21.454;2024-03-02T06:03:43;19.50;;;13.20;;
62788;SDS011;66401;42.016;21.454;2024-03-02T06:06:09;20.93;;;13.17;;
62788;SDS011;66401;42.016;21.454;2024-03-02T06:08:34;23.07;;;12.93;;
62788;SDS011;66401;42.016;21.454;2024-03-02T06:11:00;21.40;;;14.20;;
62788;SDS011;66401;42.016;21.454;2024-03-02T06:13:26;23.17;;;13.20;;
62788;SDS011;66401;42.016;21.454;2024-03-02T06:15:51;23.17;;;13.90;;
62788;SDS011;66401;42.016;21.454;2024-03-02T06:18:17;22.93;;;14.47;;
62788;SDS011;66401;42.016;21.454;2024-03-02T06:20:43;22.93;;;13.77;;
62788;SDS011;66401;42.016;21.454;2024-03-02T06:23:08;23.83;;;14.60;;
62788;SDS011;66401;42.016;21.454;2024-03-02T06:25:34;23.73;;;13.57;;
62788;SDS011;66401;42.016;21.454;2024-03-02T06:27:59;25.17;;;13.33;;
62788;SDS011;66401;42.016;21.454;2024-03-02T06:30:25;19.33;;;13.80;;
62788;SDS011;66401;42.016;21.454;2024-03-02T06:32:51;20.40;;;11.13;;
62788;SDS011;66401;42.016;21.454;2024-03-02T06:35:16;17.67;;;11.87;;
62788;SDS011;66401;42.016;21.454;2024-03-02T06:37:41;17.33;;;12.70;;
62788;SDS011;66401;42.016;21.454;2024-03-02T06:40:07;17.90;;;12.30;;
62788;SDS011;66401;42.016;21.454;2024-03-02T06:42:33;21.67;;;14.00;;
62788;SDS011;66401;42.016;21.454;2024-03-02T06:44:59;18.20;;;12.70;;
62788;SDS011;66401;42.016;21.454;2024-03-02T06:47:25;21.80;;;13.93;;
62788;SDS011;66401;42.016;21.454;2024-03-02T06:49:51;19.30;;;12.83;;
62788;SDS011;66401;42.016;21.454;2024-03-02T06:52:16;22.53;;;13.43;;
62788;SDS011;66401;42.016;21.454;2024-03-02T06:54:42;24.47;;;15.30;;
62788;SDS011;66401;42.016;21.454;2024-03-02T06:57:07;21.60;;;14.87;;
62788;SDS011;66401;42.016;21.454;2024-03-02T06:59:33;25.03;;;16.03;;
62788;SDS011;66401;42.016;21.454;2024-03-02T07:01:59;22.70;;;13.97;;
62788;SDS011;66401;42.016;21.454;2024-03-02T07:04:24;22.00;;;14.67;;
62788;SDS011;66401;42.016;21.454;2024-03-02T07:06:50;18.90;;;14.20;;
62788;SDS011;66401;42.016;21.454;2024-03-02T07:09:16;20.87;;;13.03;;
62788;SDS011;66401;42.016;21.454;2024-03-02T07:11:42;20.17;;;13.37;;
62788;SDS011;66401;42.016;21.454;2024-03-02T07:14:07;15.77;;;12.57;;
62788;SDS011;66401;42.016;21.454;2024-03-02T07:16:33;22.77;;;13.30;;
62788;SDS011;66401;42.016;21.454;2024-03-02T07:18:59;21.47;;;11.93;;
62788;SDS011;66401;42.016;21.454;2024-03-02T07:21:27;17.73;;;11.40;;
62788;SDS011;66401;42.016;21.454;2024-03-02T07:23:53;16.10;;;11.90;;
62788;SDS011;66401;42.016;21.454;2024-03-02T07:26:18;14.63;;;10.23;;
62788;SDS011;66401;42.016;21.454;2024-03-02T07:28:47;14.50;;;9.33;;
62788;SDS011;66401;42.016;21.454;2024-03-02T07:31:14;14.13;;;7.60;;
62788;SDS011;66401;42.016;21.454;2024-03-02T07:33:40;9.93;;;6.67;;
62788;SDS011;66401;42.016;21.454;2024-03-02T07:36:06;13.70;;;8.27;;
62788;SDS011;66401;42.016;21.454;2024-03-02T07:38:32;12.33;;;8.17;;
62788;SDS011;66401;42.016;21.454;2024-03-02T07:41:00;12.10;;;8.30;;
62788;SDS011;66401;42.016;21.454;2024-03-02T07:43:25;10.80;;;6.80;;
62788;SDS011;66401;42.016;21.454;2024-03-02T07:45:51;9.77;;;7.03;;
62788;SDS011;66401;42.016;21.454;2024-03-02T07:48:16;8.67;;;6.43;;
62788;SDS011;66401;42.016;21.454;2024-03-02T07:50:42;12.57;;;7.40;;
62788;SDS011;66401;42.016;21.454;2024-03-02T07:53:08;9.93;;;6.60;;
62788;SDS011;66401;42.016;21.454;2024-03-02T07:55:34;6.57;;;5.83;;
62788;SDS011;66401;42.016;21.454;2024-03-02T07:58:02;8.33;;;5.47;;
62788;SDS011;66401;42.016;21.454;2024-03-02T08:00:31;8.10;;;5.77;;
62788;SDS011;66401;42.016;21.454;2024-03-02T08:02:57;8.43;;;4.97;;
62788;SDS011;66401;42.016;21.454;2024-03-02T08:05:23;8.13;;;6.03;;
62788;SDS011;66401;42.016;21.454;2024-03-02T08:07:49;9.93;;;5.90;;
62788;SDS011;66401;42.016;21.454;2024-03-02T08:10:17;9.87;;;6.33;;
62788;SDS011;66401;42.016;21.454;2024-03-02T08:12:44;14.33;;;8.97;;
62788;SDS011;66401;42.016;21.454;2024-03-02T08:15:09;7.50;;;6.70;;
62788;SDS011;66401;42.016;21.454;2024-03-02T08:17:35;6.80;;;5.43;;
62788;SDS011;66401;42.016;21.454;2024-03-02T08:20:00;6.40;;;4.80;;
62788;SDS011;66401;42.016;21.454;2024-03-02T08:22:27;5.80;;;4.40;;
62788;SDS011;66401;42.016;21.454;2024-03-02T08:24:52;6.70;;;4.90;;
62788;SDS011;66401;42.016;21.454;2024-03-02T08:27:18;18.60;;;12.43;;
62788;SDS011;66401;42.016;21.454;2024-03-02T08:29:44;8.33;;;6.73;;
62788;SDS011;66401;42.016;21.454;2024-03-02T08:32:09;5.30;;;4.40;;
62788;SDS011;66401;42.016;21.454;2024-03-02T08:34:35;5.93;;;4.80;;
62788;SDS011;66401;42.016;21.454;2024-03-02T08:37:01;6.70;;;4.63;;
62788;SDS011;66401;42.016;21.454;2024-03-02T08:39:27;5.80;;;4.90;;
62788;SDS011;66401;42.016;21.454;2024-03-02T08:41:53;8.80;;;5.13;;
62788;SDS011;66401;42.016;21.454;2024-03-02T08:44:19;6.37;;;5.27;;
62788;SDS011;66401;42.016;21.454;2024-03-02T08:46:45;7.37;;;4.70;;
62788;SDS011;66401;42.016;21.454;2024-03-02T08:49:11;5.10;;;4.60;;
62788;SDS011;66401;42.016;21.454;2024-03-02T08:51:37;7.57;;;4.70;;
62788;SDS011;66401;42.016;21.454;2024-03-02T08:54:03;7.43;;;5.07;;
62788;SDS011;66401;42.016;21.454;2024-03-02T08:56:29;13.30;;;7.87;;
62788;SDS011;66401;42.016;21.454;2024-03-02T08:58:57;8.27;;;7.43;;
62788;SDS011;66401;42.016;21.454;2024-03-02T09:01:23;13.07;;;8.43;;
62788;SDS011;66401;42.016;21.454;2024-03-02T09:03:48;12.80;;;7.23;;
62788;SDS011;66401;42.016;21.454;2024-03-02T09:06:14;13.20;;;7.60;;
62788;SDS011;66401;42.016;21.454;2024-03-02T09:08:45;11.57;;;8.27;;
62788;SDS011;66401;42.016;21.454;2024-03-02T09:11:10;8.23;;;6.20;;
62788;SDS011;66401;42.016;21.454;2024-03-02T09:13:37;8.50;;;6.57;;
62788;SDS011;66401;42.016;21.454;2024-03-02T09:16:03;9.83;;;6.90;;
62788;SDS011;66401;42.016;21.454;2024-03-02T09:18:30;10.50;;;6.77;;
62788;SDS011;66401;42.016;21.454;2024-03-02T09:20:58;10.13;;;7.13;;
62788;SDS011;66401;42.016;21.454;2024-03-02T09:23:23;10.70;;;7.03;;
62788;SDS011;66401;42.016;21.454;2024-03-02T09:25:50;7.67;;;6.90;;
62788;SDS011;66401;42.016;21.454;2024-03-02T09:28:15;10.07;;;7.37;;
62788;SDS011;66401;42.016;21.454;2024-03-02T09:30:41;11.23;;;8.33;;
62788;SDS011;66401;42.016;21.454;2024-03-02T09:33:06;13.77;;;9.07;;
62788;SDS011;66401;42.016;21.454;2024-03-02T09:35:32;12.83;;;9.80;;
62788;SDS011;66401;42.016;21.454;2024-03-02T09:37:57;11.27;;;8.90;;
62788;SDS011;66401;42.016;21.454;2024-03-02T09:40:23;12.43;;;8.90;;
62788;SDS011;66401;42.016;21.454;2024-03-02T09:42:49;11.80;;;9.40;;
62788;SDS011;66401;42.016;21.454;2024-03-02T09:45:22;12.57;;;9.23;;
62788;SDS011;66401;42.016;21.454;2024-03-02T09:47:49;10.13;;;8.23;;
62788;SDS011;66401;42.016;21.454;2024-03-02T09:50:14;15.20;;;9.13;;
62788;SDS011;66401;42.016;21.454;2024-03-02T09:52:40;13.40;;;8.50;;
62788;SDS011;66401;42.016;21.454;2024-03-02T09:55:08;9.57;;;7.93;;
62788;SDS011;66401;42.016;21.454;2024-03-02T09:57:34;11.10;;;9.37;;
62788;SDS011;66401;42.016;21.454;2024-03-02T10:00:00;13.40;;;7.63;;
62788;SDS011;66401;42.016;21.454;2024-03-02T10:02:25;14.57;;;8.83;;
62788;SDS011;66401;42.016;21.454;2024-03-02T10:04:51;9.30;;;7.60;;
62788;SDS011;66401;42.016;21.454;2024-03-02T10:07:17;10.03;;;7.27;;
62788;SDS011;66401;42.016;21.454;2024-03-02T10:09:47;8.23;;;6.37;;
62788;SDS011;66401;42.016;21.454;2024-03-02T10:12:14;8.63;;;6.43;;
62788;SDS011;66401;42.016;21.454;2024-03-02T10:14:41;8.87;;;6.13;;
62788;SDS011;66401;42.016;21.454;2024-03-02T10:17:11;7.30;;;5.57;;
62788;SDS011;66401;42.016;21.454;2024-03-02T10:19:37;6.37;;;5.77;;
62788;SDS011;66401;42.016;21.454;2024-03-02T10:22:04;6.20;;;5.60;;
62788;SDS011;66401;42.016;21.454;2024-03-02T10:24:38;8.70;;;5.47;;
62788;SDS011;66401;42.016;21.454;2024-03-02T10:27:23;10.73;;;5.67;;
62788;SDS011;66401;42.016;21.454;2024-03-02T10:29:52;9.45;;;6.28;;
62788;SDS011;66401;42.016;21.454;2024-03-02T10:32:17;6.95;;;5.32;;
62788;SDS011;66401;42.016;21.454;2024-03-02T10:34:46;6.88;;;5.90;;
62788;SDS011;66401;42.016;21.454;2024-03-02T10:37:15;6.35;;;5.50;;
62788;SDS011;66401;42.016;21.454;2024-03-02T10:39:42;5.88;;;5.25;;
62788;SDS011;66401;42.016;21.454;2024-03-02T10:42:08;7.20;;;5.15;;
62788;SDS011;66401;42.016;21.454;2024-03-02T10:44:34;6.50;;;5.53;;
62788;SDS011;66401;42.016;21.454;2024-03-02T10:47:03;6.22;;;5.63;;
62788;SDS011;66401;42.016;21.454;2024-03-02T10:49:30;6.47;;;5.80;;
62788;SDS011;66401;42.016;21.454;2024-03-02T10:52:00;6.13;;;5.03;;
62788;SDS011;66401;42.016;21.454;2024-03-02T10:54:26;5.75;;;4.97;;
62788;SDS011;66401;42.016;21.454;2024-03-02T10:56:54;7.47;;;4.90;;
62788;SDS011;66401;42.016;21.454;2024-03-02T10:59:32;7.80;;;5.63;;
62788;SDS011;66401;42.016;21.454;2024-03-02T11:02:00;5.43;;;4.85;;
62788;SDS011;66401;42.016;21.454;2024-03-02T11:04:37;8.27;;;5.93;;
62788;SDS011;66401;42.016;21.454;2024-03-02T11:07:05;6.40;;;5.78;;
62788;SDS011;66401;42.016;21.454;2024-03-02T11:09:35;7.38;;;6.22;;
62788;SDS011;66401;42.016;21.454;2024-03-02T11:15:24;8.38;;;5.28;;
62788;SDS011;66401;42.016;21.454;2024-03-02T11:17:51;5.72;;;5.22;;
62788;SDS011;66401;42.016;21.454;2024-03-02T11:20:18;9.13;;;4.78;;
62788;SDS011;66401;42.016;21.454;2024-03-02T11:22:45;7.95;;;4.95;;
62788;SDS011;66401;42.016;21.454;2024-03-02T11:25:24;6.28;;;5.40;;
62788;SDS011;66401;42.016;21.454;2024-03-02T11:33:00;8.00;;;4.60;;
62788;SDS011;66401;42.016;21.454;2024-03-02T11:38:13;6.43;;;4.22;;
62788;SDS011;66401;42.016;21.454;2024-03-02T11:40:39;5.28;;;4.78;;
62788;SDS011;66401;42.016;21.454;2024-03-02T11:43:06;6.82;;;5.38;;
62788;SDS011;66401;42.016;21.454;2024-03-02T11:45:36;6.45;;;5.03;;
62788;SDS011;66401;42.016;21.454;2024-03-02T11:48:05;7.18;;;5.05;;
62788;SDS011;66401;42.016;21.454;2024-03-02T11:50:35;8.37;;;4.63;;
62788;SDS011;66401;42.016;21.454;2024-03-02T11:53:05;6.10;;;4.63;;
62788;SDS011;66401;42.016;21.454;2024-03-02T11:55:34;8.00;;;4.60;;
62788;SDS011;66401;42.016;21.454;2024-03-02T11:58:05;10.37;;;4.53;;
62788;SDS011;66401;42.016;21.454;2024-03-02T12:00:31;8.97;;;4.43;;
62788;SDS011;66401;42.016;21.454;2024-03-02T12:03:04;5.70;;;4.20;;
62788;SDS011;66401;42.016;21.454;2024-03-02T12:05:30;5.63;;;4.83;;
62788;SDS011;66401;42.016;21.454;2024-03-02T12:07:56;11.27;;;4.10;;
62788;SDS011;66401;42.016;21.454;2024-03-02T12:10:23;6.80;;;4.57;;
62788;SDS011;66401;42.016;21.454;2024-03-02T12:12:55;7.17;;;4.70;;
62788;SDS011;66401;42.016;21.454;2024-03-02T12:15:28;9.87;;;3.90;;
62788;SDS011;66401;42.016;21.454;2024-03-02T12:17:57;4.90;;;3.87;;
62788;SDS011;66401;42.016;21.454;2024-03-02T12:20:24;5.73;;;3.93;;
62788;SDS011;66401;42.016;21.454;2024-03-02T12:22:51;4.37;;;3.17;;
62788;SDS011;66401;42.016;21.454;2024-03-02T12:25:21;5.97;;;3.90;;
62788;SDS011;66401;42.016;21.454;2024-03-02T12:27:48;3.83;;;3.53;;
62788;SDS011;66401;42.016;21.454;2024-03-02T12:30:18;6.57;;;3.97;;
62788;SDS011;66401;42.016;21.454;2024-03-02T12:32:44;6.27;;;3.57;;
62788;SDS011;66401;42.016;21.454;2024-03-02T12:35:13;3.67;;;3.23;;
62788;SDS011;66401;42.016;21.454;2024-03-02T12:37:45;6.13;;;3.60;;
62788;SDS011;66401;42.016;21.454;2024-03-02T12:40:13;4.50;;;3.10;;
62788;SDS011;66401;42.016;21.454;2024-03-02T12:42:40;7.00;;;3.00;;
62788;SDS011;66401;42.016;21.454;2024-03-02T12:45:07;4.80;;;2.97;;
62788;SDS011;66401;42.016;21.454;2024-03-02T12:47:33;6.67;;;3.87;;
62788;SDS011;66401;42.016;21.454;2024-03-02T12:49:59;6.67;;;3.43;;
62788;SDS011;66401;42.016;21.454;2024-03-02T12:52:25;8.00;;;3.33;;
62788;SDS011;66401;42.016;21.454;2024-03-02T12:54:51;6.73;;;3.20;;
62788;SDS011;66401;42.016;21.454;2024-03-02T12:57:20;4.23;;;3.07;;
62788;SDS011;66401;42.016;21.454;2024-03-02T12:59:46;5.57;;;3.50;;
62788;SDS011;66401;42.016;21.454;2024-03-02T13:02:18;5.33;;;3.90;;
62788;SDS011;66401;42.016;21.454;2024-03-02T13:04:52;3.10;;;2.80;;
62788;SDS011;66401;42.016;21.454;2024-03-02T13:07:21;7.03;;;3.30;;
62788;SDS011;66401;42.016;21.454;2024-03-02T13:09:49;3.77;;;3.20;;
62788;SDS011;66401;42.016;21.454;2024-03-02T13:12:15;4.73;;;3.40;;
62788;SDS011;66401;42.016;21.454;2024-03-02T13:14:43;7.23;;;3.57;;
62788;SDS011;66401;42.016;21.454;2024-03-02T13:17:09;4.83;;;3.50;;
62788;SDS011;66401;42.016;21.454;2024-03-02T13:19:35;4.37;;;3.00;;
62788;SDS011;66401;42.016;21.454;2024-03-02T13:22:00;5.40;;;3.10;;
62788;SDS011;66401;42.016;21.454;2024-03-02T13:24:28;7.23;;;3.60;;
62788;SDS011;66401;42.016;21.454;2024-03-02T13:26:54;5.03;;;3.70;;
62788;SDS011;66401;42.016;21.454;2024-03-02T13:29:23;4.17;;;3.50;;
62788;SDS011;66401;42.016;21.454;2024-03-02T13:31:49;11.00;;;3.73;;
62788;SDS011;66401;42.016;21.454;2024-03-02T13:34:16;6.20;;;3.60;;
62788;SDS011;66401;42.016;21.454;2024-03-02T13:36:41;4.23;;;2.80;;
62788;SDS011;66401;42.016;21.454;2024-03-02T13:39:07;4.10;;;2.80;;
62788;SDS011;66401;42.016;21.454;2024-03-02T13:41:35;8.33;;;4.00;;
62788;SDS011;66401;42.016;21.454;2024-03-02T13:44:01;5.03;;;3.03;;
62788;SDS011;66401;42.016;21.454;2024-03-02T13:46:26;6.20;;;3.20;;
62788;SDS011;66401;42.016;21.454;2024-03-02T13:48:52;8.13;;;3.33;;
62788;SDS011;66401;42.016;21.454;2024-03-02T13:51:19;5.83;;;3.23;;
62788;SDS011;66401;42.016;21.454;2024-03-02T13:53:44;6.87;;;3.80;;
62788;SDS011;66401;42.016;21.454;2024-03-02T13:56:10;5.37;;;3.83;;
62788;SDS011;66401;42.016;21.454;2024-03-02T13:58:36;7.07;;;3.17;;
62788;SDS011;66401;42.016;21.454;2024-03-02T14:01:02;3.77;;;3.20;;
62788;SDS011;66401;42.016;21.454;2024-03-02T14:03:29;4.60;;;2.97;;
62788;SDS011;66401;42.016;21.454;2024-03-02T14:05:55;6.77;;;2.90;;
62788;SDS011;66401;42.016;21.454;2024-03-02T14:08:21;4.17;;;3.03;;
62788;SDS011;66401;42.016;21.454;2024-03-02T14:10:46;6.93;;;3.00;;
62788;SDS011;66401;42.016;21.454;2024-03-02T14:13:12;6.80;;;2.80;;
62788;SDS011;66401;42.016;21.454;2024-03-02T14:15:37;8.37;;;3.00;;
62788;SDS011;66401;42.016;21.454;2024-03-02T14:18:05;5.07;;;2.90;;
62788;SDS011;66401;42.016;21.454;2024-03-02T14:20:31;6.30;;;3.03;;
62788;SDS011;66401;42.016;21.454;2024-03-02T14:22:58;8.90;;;3.20;;
62788;SDS011;66401;42.016;21.454;2024-03-02T14:25:24;6.10;;;2.90;;
62788;SDS011;66401;42.016;21.454;2024-03-02T14:27:50;7.40;;;3.27;;
62788;SDS011;66401;42.016;21.454;2024-03-02T14:30:16;6.87;;;3.20;;
62788;SDS011;66401;42.016;21.454;2024-03-02T14:32:41;59.03;;;16.47;;
62788;SDS011;66401;42.016;21.454;2024-03-02T14:35:07;35.30;;;9.47;;